createdAt,value
2023-04-13T00:04:58.555Z,4.70
2023-04-13T00:10:03.984Z,5.24
2023-04-13T00:15:10.696Z,5.38
2023-04-13T00:20:15.820Z,5.10
2023-04-13T00:25:20.179Z,4.87
2023-04-13T00:30:25.588Z,4.57
2023-04-13T00:35:29.478Z,4.95
2023-04-13T00:40:37.824Z,5.18
2023-04-13T00:45:43.493Z,5.63
2023-04-13T00:50:48.475Z,5.28
2023-04-13T00:55:53.326Z,5.16
2023-04-13T01:00:58.697Z,5.45
2023-04-13T01:06:09.553Z,5.40
2023-04-13T01:11:21.044Z,5.11
2023-04-13T01:16:32.265Z,4.39
2023-04-13T01:21:40.686Z,3.90
2023-04-13T01:26:54.589Z,2.81
2023-04-13T01:32:02.906Z,3.76
2023-04-13T01:37:09.132Z,3.55
2023-04-13T01:42:13.525Z,3.91
2023-04-13T01:47:25.701Z,3.16
2023-04-13T01:52:44.683Z,3.09
2023-04-13T01:57:55.152Z,3.62
2023-04-13T02:03:01.897Z,4.06
2023-04-13T02:08:07.529Z,4.30
2023-04-13T02:13:16.179Z,3.89
2023-04-13T02:18:25.812Z,3.05
2023-04-13T02:23:31.510Z,3.30
2023-04-13T02:28:36.247Z,3.04
2023-04-13T02:33:43.785Z,4.25
2023-04-13T02:38:47.880Z,4.38
2023-04-13T02:44:01.743Z,4.83
2023-04-13T02:49:13.488Z,3.86
2023-04-13T02:54:28.613Z,3.88
2023-04-13T02:59:34.035Z,4.31
2023-04-13T03:04:43.356Z,3.85
2023-04-13T03:09:53.705Z,4.67
2023-04-13T03:15:03.797Z,4.58
2023-04-13T03:20:13.427Z,4.72
2023-04-13T03:25:22.588Z,5.14
2023-04-13T03:30:26.788Z,4.49
2023-04-13T03:35:36.181Z,3.54
2023-04-13T03:40:43.497Z,3.12
2023-04-13T03:45:48.306Z,2.87
2023-04-13T03:50:56.316Z,3.26
2023-04-13T03:56:07.201Z,3.92
2023-04-13T04:01:12.282Z,4.38
2023-04-13T04:06:27.234Z,4.50
2023-04-13T04:11:43.552Z,4.62
2023-04-13T04:16:49.200Z,4.62
2023-04-13T04:21:58.074Z,4.38
2023-04-13T04:27:07.820Z,4.31
2023-04-13T04:32:12.960Z,3.80
2023-04-13T04:37:22.878Z,4.72
2023-04-13T04:42:46.393Z,5.19
2023-04-13T04:48:06.395Z,5.13
2023-04-13T04:53:15.043Z,5.77
2023-04-13T04:58:22.393Z,5.80
2023-04-13T05:03:34.580Z,7.39
2023-04-13T05:08:58.057Z,7.23
2023-04-13T05:14:04.155Z,7.03
2023-04-13T05:19:09.767Z,7.59
2023-04-13T05:24:28.008Z,8.42
2023-04-13T05:29:35.570Z,10.25
2023-04-13T05:34:39.921Z,8.86
2023-04-13T05:39:56.569Z,8.64
2023-04-13T05:45:10.655Z,8.71
2023-04-13T05:50:26.065Z,8.66
2023-04-13T05:55:31.523Z,9.97
2023-04-13T06:00:40.117Z,11.65
2023-04-13T06:05:49.538Z,11.93
2023-04-13T06:10:54.948Z,10.56
2023-04-13T06:15:59.134Z,10.84
2023-04-13T06:21:03.729Z,11.77
2023-04-13T06:26:12.469Z,11.35
2023-04-13T06:31:27.740Z,11.48
2023-04-13T06:36:35.034Z,12.71
2023-04-13T06:41:41.615Z,13.00
2023-04-13T06:46:53.507Z,13.19
2023-04-13T06:51:59.464Z,12.70
2023-04-13T06:57:05.297Z,12.60
2023-04-13T07:02:10.788Z,13.10
2023-04-13T07:07:15.297Z,13.81
2023-04-13T07:12:21.922Z,12.61
2023-04-13T07:17:26.398Z,12.65
2023-04-13T07:22:33.822Z,13.16
2023-04-13T07:27:39.453Z,13.27
2023-04-13T07:32:43.713Z,13.44
2023-04-13T07:37:52.168Z,14.07
2023-04-13T07:42:59.581Z,14.64
2023-04-13T07:48:06.915Z,15.29
2023-04-13T07:53:13.357Z,14.10
2023-04-13T07:58:22.005Z,14.34
2023-04-13T08:03:26.423Z,13.20
2023-04-13T08:08:30.715Z,13.44
2023-04-13T08:13:36.875Z,14.16
2023-04-13T08:18:41.433Z,14.25
2023-04-13T08:23:46.981Z,14.64
2023-04-13T08:28:53.948Z,14.04
2023-04-13T08:33:58.169Z,14.58
2023-04-13T08:39:02.944Z,14.75
2023-04-13T08:44:10.194Z,15.18
2023-04-13T08:49:17.807Z,16.09
2023-04-13T08:54:46.385Z,14.94
2023-04-13T09:00:11.567Z,15.69
2023-04-13T09:05:17.078Z,15.09
2023-04-13T09:10:27.727Z,14.80
2023-04-13T09:15:33.853Z,15.44
2023-04-13T09:21:01.690Z,15.48
2023-04-13T09:26:07.351Z,16.16
2023-04-13T09:31:15.715Z,17.04
2023-04-13T09:36:21.844Z,17.05
2023-04-13T09:41:33.607Z,15.94
2023-04-13T09:46:39.322Z,15.77
2023-04-13T09:51:43.168Z,16.86
2023-04-13T09:56:48.352Z,16.62
2023-04-13T10:01:54.908Z,15.77
2023-04-13T10:06:59.461Z,17.45
2023-04-13T10:12:06.207Z,16.80
2023-04-13T10:17:36.256Z,17.19
2023-04-13T10:22:47.323Z,17.11
2023-04-13T10:27:59.275Z,15.43
2023-04-13T10:33:08.398Z,17.13
2023-04-13T10:38:15.335Z,18.59
2023-04-13T10:43:28.522Z,18.45
2023-04-13T10:48:34.478Z,18.37
2023-04-13T10:53:38.647Z,17.72
2023-04-13T10:58:43.398Z,15.67
2023-04-13T11:04:01.259Z,17.13
2023-04-13T11:09:13.151Z,17.75
2023-04-13T11:14:39.496Z,19.13
2023-04-13T11:19:50.585Z,19.67
2023-04-13T11:24:55.080Z,20.54
2023-04-13T11:30:05.418Z,18.78
2023-04-13T11:35:27.306Z,21.65
2023-04-13T11:40:31.731Z,21.04
2023-04-13T11:45:35.782Z,18.55
2023-04-13T11:50:41.844Z,17.32
2023-04-13T11:55:53.452Z,17.30
2023-04-13T12:01:03.284Z,19.27
2023-04-13T12:06:10.671Z,20.47
2023-04-13T12:11:40.487Z,21.84
2023-04-13T12:21:56.748Z,23.67
2023-04-13T12:32:15.096Z,25.66
2023-04-13T12:37:20.741Z,24.45
2023-04-13T12:42:24.640Z,22.48
2023-04-13T12:47:28.625Z,22.25
2023-04-13T12:52:34.231Z,24.41
2023-04-13T12:57:39.788Z,24.40
2023-04-13T13:02:44.324Z,25.07
2023-04-13T13:07:49.740Z,25.34
2023-04-13T13:12:54.352Z,24.34
2023-04-13T13:18:00.941Z,24.68
2023-04-13T13:23:06.828Z,24.50
2023-04-13T13:28:14.519Z,24.88
2023-04-13T13:33:19.908Z,23.96
2023-04-13T13:38:25.754Z,24.23
2023-04-13T13:43:29.974Z,23.87
2023-04-13T13:48:34.276Z,22.92
2023-04-13T13:54:15.352Z,24.16
2023-04-13T13:59:19.586Z,22.86
2023-04-13T14:04:23.636Z,21.93
2023-04-13T14:09:30.206Z,22.91
2023-04-13T14:14:36.376Z,22.73
2023-04-13T14:19:40.511Z,22.76
2023-04-13T14:24:46.550Z,22.19
2023-04-13T14:29:50.568Z,21.70
2023-04-13T14:34:54.892Z,23.27
2023-04-13T14:40:00.447Z,24.27
2023-04-13T14:45:05.377Z,24.51
2023-04-13T14:50:15.825Z,22.65
2023-04-13T14:55:22.982Z,20.34
2023-04-13T15:00:39.055Z,19.71
2023-04-13T15:05:46.257Z,18.34
2023-04-13T15:10:52.057Z,17.97
2023-04-13T15:15:56.800Z,17.99
2023-04-13T15:21:03.290Z,18.03
2023-04-13T15:26:09.038Z,20.36
2023-04-13T15:31:15.844Z,18.57
2023-04-13T15:36:19.963Z,17.72
2023-04-13T15:41:27.668Z,17.68
2023-04-13T15:46:33.565Z,17.58
2023-04-13T15:51:45.360Z,17.82
2023-04-13T15:56:51.678Z,19.67
2023-04-13T16:01:55.761Z,20.76
2023-04-13T16:12:08.730Z,16.83
2023-04-13T16:17:13.324Z,16.25
2023-04-13T16:22:18.058Z,16.45
2023-04-13T16:27:23.616Z,17.43
2023-04-13T16:32:27.920Z,17.56
2023-04-13T16:37:32.273Z,17.51
2023-04-13T16:42:38.030Z,17.16
2023-04-13T16:47:42.411Z,17.03
2023-04-13T16:52:50.325Z,16.67
2023-04-13T16:57:57.523Z,16.87
2023-04-13T17:03:02.458Z,17.19
2023-04-13T17:08:09.927Z,16.32
2023-04-13T17:13:15.457Z,16.46
2023-04-13T17:18:19.567Z,16.85
2023-04-13T17:23:24.946Z,17.07
2023-04-13T17:28:30.819Z,16.50
2023-04-13T17:33:35.447Z,16.70
2023-04-13T17:38:40.566Z,17.13
2023-04-13T17:44:15.844Z,16.60
2023-04-13T17:49:22.918Z,16.27
2023-04-13T17:54:27.440Z,16.24
2023-04-13T17:59:33.406Z,16.06
2023-04-13T18:04:37.757Z,15.69
2023-04-13T18:09:42.190Z,15.93
2023-04-13T18:14:47.956Z,15.99
2023-04-13T18:20:01.008Z,15.90
2023-04-13T18:25:06.411Z,16.43
2023-04-13T18:30:13.438Z,16.11
2023-04-13T18:35:17.842Z,15.79
2023-04-13T18:40:22.081Z,15.27
2023-04-13T18:45:27.773Z,15.51
2023-04-13T18:50:32.042Z,15.61
2023-04-13T18:55:36.381Z,15.60
2023-04-13T19:00:42.156Z,15.06
2023-04-13T19:05:46.447Z,14.77
2023-04-13T19:10:50.589Z,14.45
2023-04-13T19:15:57.800Z,14.53
2023-04-13T19:21:02.721Z,14.39
2023-04-13T19:26:07.006Z,13.93
2023-04-13T19:31:13.117Z,14.02
2023-04-13T19:36:17.297Z,13.70
2023-04-13T19:41:21.372Z,13.84
2023-04-13T19:46:29.462Z,13.59
2023-04-13T19:51:33.693Z,13.66
2023-04-13T19:56:38.108Z,13.10
2023-04-13T20:01:46.113Z,12.66
2023-04-13T20:06:50.538Z,12.17
2023-04-13T20:11:54.837Z,12.28
2023-04-13T20:17:00.459Z,12.52
2023-04-13T20:22:05.229Z,12.62
2023-04-13T20:27:10.250Z,11.60
2023-04-13T20:32:16.047Z,11.73
2023-04-13T20:37:20.426Z,11.84
2023-04-13T20:42:25.040Z,12.01
2023-04-13T20:47:32.209Z,11.99
2023-04-13T20:52:36.819Z,11.35
2023-04-13T20:57:44.276Z,11.07
2023-04-13T21:02:50.207Z,10.69
2023-04-13T21:07:56.902Z,10.12
2023-04-13T21:13:01.747Z,10.46
2023-04-13T21:18:07.342Z,10.63
2023-04-13T21:23:11.923Z,10.90
2023-04-13T21:28:15.929Z,10.57
2023-04-13T21:33:21.512Z,9.80
2023-04-13T21:38:25.659Z,9.74
2023-04-13T21:43:29.803Z,10.56
2023-04-13T21:48:35.171Z,10.39
2023-04-13T21:53:40.179Z,9.74
2023-04-13T21:58:45.432Z,9.68
2023-04-13T22:03:53.490Z,9.53
2023-04-13T22:08:58.115Z,9.87
2023-04-13T22:14:02.225Z,10.47
2023-04-13T22:19:07.516Z,9.84
2023-04-13T22:24:12.810Z,10.15
2023-04-13T22:29:16.964Z,9.96
2023-04-13T22:34:22.747Z,9.29
2023-04-13T22:39:26.719Z,8.78
2023-04-13T22:44:34.169Z,9.27
2023-04-13T22:49:39.516Z,10.02
2023-04-13T22:54:43.503Z,9.34
2023-04-13T22:59:47.649Z,9.72
2023-04-13T23:04:52.996Z,9.88
2023-04-13T23:09:57.171Z,9.49
2023-04-13T23:15:01.124Z,9.96
2023-04-13T23:20:08.173Z,9.73
2023-04-13T23:25:12.280Z,10.09
2023-04-13T23:30:16.476Z,9.45
2023-04-13T23:35:21.912Z,7.42
2023-04-13T23:40:26.013Z,8.81
2023-04-13T23:45:30.102Z,8.66
2023-04-13T23:50:35.388Z,8.25
2023-04-13T23:55:39.340Z,8.94
